Spiip — 9HB4722 — position and weather

sailwx.info

Track history (hours):
 
Tides and Currents Weather Stations Pressure Air Temp Water Temp Dewpoint Dewpoint Depression Visibility Wind Speed Wind Dir Waves Ship Positions

Spiip

Last reported at 2018-Jun-22 17:00 UTC. Time now 2018-Jun-22 23:05 UTC.
Position N 50°17' W 000°23'.

Length 34 m.

Type: Pleasure craft. MMSI: 249264000.

Date/timePositionNaut miles runAvg speedWind from/ knotsBaromVisibWave heightAir tempDewpointWater temp
2018-Jun-22 17:00N 50°17' W 000°23'712.4
2018-Jun-22 16:26N 50°15' W 000°33'612.6
2018-Jun-22 16:00N 50°14' W 000°42'3112.1
2018-Jun-22 13:25N 50°08' W 001°30'510.7
2018-Jun-22 12:58N 50°08' W 001°38'710.2
2018-Jun-22 12:15N 50°08' W 001°49'3 9.8
2018-Jun-22 11:55N 50°07' W 001°54'30 8.2
2018-Jun-22 08:15N 50°08' W 002°41'2 8.7
2018-Jun-22 08:00N 50°08' W 002°44'5 9.0
2018-Jun-22 07:30N 50°08' W 002°51'5 9.5
2018-Jun-22 06:58N 50°08' W 002°59'5 9.9
2018-Jun-22 06:30N 50°09' W 003°06'510.1
2018-Jun-22 06:00N 50°09' W 003°14'510.3
2018-Jun-22 05:30N 50°09' W 003°22'510.2
2018-Jun-22 05:00N 50°09' W 003°30'510.3
2018-Jun-22 04:30N 50°09' W 003°38'610.7
2018-Jun-22 03:54N 50°09' W 003°48'410.4
2018-Jun-22 03:30N 50°09' W 003°55'510.3
2018-Jun-22 03:00N 50°09' W 004°03'510.1
2018-Jun-22 02:30N 50°09' W 004°11'510.5
2018-Jun-22 02:00N 50°09' W 004°19'610.7
2018-Jun-22 01:27N 50°09' W 004°28'610.7
2018-Jun-22 00:56N 50°08' W 004°37'510.6
2018-Jun-22 00:30N 50°08' W 004°44'610.5
2018-Jun-21 23:56N 50°08' W 004°53'4 8.3
2018-Jun-21 23:29N 50°08' W 004°59'  
Track history (hours):
 
Tides and Currents Weather Stations Pressure Air Temp Water Temp Dewpoint Dewpoint Depression Visibility Wind Speed Wind Dir Waves Ship Positions

Spiip

Last reported at 2018-Jun-22 17:00 UTC. Time now 2018-Jun-22 23:05 UTC.
Position N 50°17' W 000°23'.

Length 34 m.

Type: Pleasure craft. MMSI: 249264000.

Date/timePositionNaut miles runAvg speedWind from/ knotsBaromVisibWave heightAir tempDewpointWater temp
2018-Jun-22 17:00N 50°17' W 000°23'712.4
2018-Jun-22 16:26N 50°15' W 000°33'612.6
2018-Jun-22 16:00N 50°14' W 000°42'3112.1
2018-Jun-22 13:25N 50°08' W 001°30'510.7
2018-Jun-22 12:58N 50°08' W 001°38'710.2
2018-Jun-22 12:15N 50°08' W 001°49'3 9.8
2018-Jun-22 11:55N 50°07' W 001°54'30 8.2
2018-Jun-22 08:15N 50°08' W 002°41'2 8.7
2018-Jun-22 08:00N 50°08' W 002°44'5 9.0
2018-Jun-22 07:30N 50°08' W 002°51'5 9.5
2018-Jun-22 06:58N 50°08' W 002°59'5 9.9
2018-Jun-22 06:30N 50°09' W 003°06'510.1
2018-Jun-22 06:00N 50°09' W 003°14'510.3
2018-Jun-22 05:30N 50°09' W 003°22'510.2
2018-Jun-22 05:00N 50°09' W 003°30'510.3
2018-Jun-22 04:30N 50°09' W 003°38'610.7
2018-Jun-22 03:54N 50°09' W 003°48'410.4
2018-Jun-22 03:30N 50°09' W 003°55'510.3
2018-Jun-22 03:00N 50°09' W 004°03'510.1
2018-Jun-22 02:30N 50°09' W 004°11'510.5
2018-Jun-22 02:00N 50°09' W 004°19'610.7
2018-Jun-22 01:27N 50°09' W 004°28'610.7
2018-Jun-22 00:56N 50°08' W 004°37'510.6
2018-Jun-22 00:30N 50°08' W 004°44'610.5
2018-Jun-21 23:56N 50°08' W 004°53'4 8.3
2018-Jun-21 23:29N 50°08' W 004°59'  

Dump ship's entire track history